aviador You're here:

KPIA Decoded Metar

PEORIA in IL, USA
Report Time2018-01-21 05:54:00
UTC Time2018-01-21 06:38:38
Flight Rules vfr VFR
Wind160° at 06 kt
W.Decomp.*RWY 13: 5.2 kt HW 2.9 kt RCW
RWY 22: 2.9 kt HW 5.2 kt LCW
W.Rank160° ranks 15
Current wind is below 160° avg. (7.7)
Visibility9999 m
Phenomena:N/A
Clouds:Overcast 035 Hf
Expected CloudBase > 1,200 ft AGL from Temp-Dew spread
Ceiling3,500 ft
Temp06°C (ISA -8)
Dew Point03°C (81% RH)
AAT2.3°C
QNH1015 hPa
Density Alt-213 ft
Elevation673 ft
Report Wrong Elevation
Raw Report
KPIA 210554Z 16006KT 10SM OVC035 06/03 A2997 RMK AO2 SLP152
T00560028 10067 20056 400831022 58004 $=

Extra information for KPIA:More info

Metar Taf Metar & Taf Last 4 Metars F.Rules Stats Wind Profile Meteogram Temp Stats Airport Information Weather charts Add Link Nearby VenuesMetar ALERT Operation Metar Decoded Social comments

AIRNAV info for KPIA